Suez Canal Bridge — HODM — position and weather

sailwx.info

Track history (hours):
 
Tides and Currents Weather Stations Pressure Air Temp Water Temp Dewpoint Dewpoint Depression Visibility Wind Speed Wind Dir Waves Ship Positions

Suez Canal Bridge

Last reported at 2014-Oct-24 15:33 UTC. Time now 2014-Oct-24 16:53 UTC.
Position N 36°37' W 010°28'.

Length 284.7 m; beam 40 m.

Type: Cargo ship. MMSI: 353704000.

Date/timePositionNaut miles runAvg speedWind from/ knotsBaromVisibWave heightAir tempDewpointWater temp
2014-Oct-24 15:33N 36°37' W 010°28'1312.9
2014-Oct-24 14:33N 36°41' W 010°43'1312.7
2014-Oct-24 13:33N 36°45' W 010°58'1312.8
2014-Oct-24 12:33N 36°48' W 011°13'1312.8
2014-Oct-24 11:33N 36°51' W 011°29'1313.0
2014-Oct-24 10:33N 36°55' W 011°44'1312.8
2014-Oct-24 09:33N 36°58' W 012°00'1312.7
2014-Oct-24 08:33N 37°02' W 012°15'1312.6
2014-Oct-24 07:33N 37°06' W 012°30'1312.7
2014-Oct-24 06:33N 37°09' W 012°46'1212.4
2014-Oct-24 05:33N 37°12' W 013°01'1312.6
2014-Oct-24 04:33N 37°16' W 013°16'1212.4
2014-Oct-24 03:33N 37°19' W 013°31'1312.6
2014-Oct-24 02:33N 37°22' W 013°46'1212.4
2014-Oct-24 01:33N 37°25' W 014°01'3112.7
2014-Oct-23 23:07N 37°34' W 014°39'13412.6
2014-Oct-23 12:29N 38°06' W 017°23'48713.6
2014-Oct-22 00:33N 39°33' W 027°38'1313.3
2014-Oct-21 23:33N 39°34' W 027°55'1313.2
2014-Oct-21 22:33N 39°36' W 028°12'1313.1
2014-Oct-21 21:33N 39°38' W 028°29'1313.1
2014-Oct-21 20:33N 39°39' W 028°46'1313.1
2014-Oct-21 19:33N 39°40' W 029°03'1312.6
2014-Oct-21 18:33N 39°42' W 029°19'1312.7
2014-Oct-21 17:33N 39°43' W 029°36'1312.7
2014-Oct-21 16:32N 39°44' W 029°53'1312.9
2014-Oct-21 15:33N 39°45' W 030°09'  
2014-Oct-16 03:21N 33°53' W 075°19'30017.8
2014-Oct-15 10:33N 32°02' W 080°51'1010.3
2014-Oct-15 09:33N 32°05' W 081°03'5 5.1
2014-Oct-15 08:33N 32°08' W 081°08'0 0.1
2014-Oct-15 04:26N 32°08' W 081°08'0 0.0
2014-Oct-15 03:33N 32°08' W 081°08'0 0.0
2014-Oct-15 00:32N 32°08' W 081°08'0 0.0
2014-Oct-14 18:29N 32°08' W 081°08'  
Track history (hours):
 
Tides and Currents Weather Stations Pressure Air Temp Water Temp Dewpoint Dewpoint Depression Visibility Wind Speed Wind Dir Waves Ship Positions

Suez Canal Bridge

Last reported at 2014-Oct-24 15:33 UTC. Time now 2014-Oct-24 16:53 UTC.
Position N 36°37' W 010°28'.

Length 284.7 m; beam 40 m.

Type: Cargo ship. MMSI: 353704000.

Date/timePositionNaut miles runAvg speedWind from/ knotsBaromVisibWave heightAir tempDewpointWater temp
2014-Oct-24 15:33N 36°37' W 010°28'1312.9
2014-Oct-24 14:33N 36°41' W 010°43'1312.7
2014-Oct-24 13:33N 36°45' W 010°58'1312.8
2014-Oct-24 12:33N 36°48' W 011°13'1312.8
2014-Oct-24 11:33N 36°51' W 011°29'1313.0
2014-Oct-24 10:33N 36°55' W 011°44'1312.8
2014-Oct-24 09:33N 36°58' W 012°00'1312.7
2014-Oct-24 08:33N 37°02' W 012°15'1312.6
2014-Oct-24 07:33N 37°06' W 012°30'1312.7
2014-Oct-24 06:33N 37°09' W 012°46'1212.4
2014-Oct-24 05:33N 37°12' W 013°01'1312.6
2014-Oct-24 04:33N 37°16' W 013°16'1212.4
2014-Oct-24 03:33N 37°19' W 013°31'1312.6
2014-Oct-24 02:33N 37°22' W 013°46'1212.4
2014-Oct-24 01:33N 37°25' W 014°01'3112.7
2014-Oct-23 23:07N 37°34' W 014°39'13412.6
2014-Oct-23 12:29N 38°06' W 017°23'48713.6
2014-Oct-22 00:33N 39°33' W 027°38'1313.3
2014-Oct-21 23:33N 39°34' W 027°55'1313.2
2014-Oct-21 22:33N 39°36' W 028°12'1313.1
2014-Oct-21 21:33N 39°38' W 028°29'1313.1
2014-Oct-21 20:33N 39°39' W 028°46'1313.1
2014-Oct-21 19:33N 39°40' W 029°03'1312.6
2014-Oct-21 18:33N 39°42' W 029°19'1312.7
2014-Oct-21 17:33N 39°43' W 029°36'1312.7
2014-Oct-21 16:32N 39°44' W 029°53'1312.9
2014-Oct-21 15:33N 39°45' W 030°09'  
2014-Oct-16 03:21N 33°53' W 075°19'30017.8
2014-Oct-15 10:33N 32°02' W 080°51'1010.3
2014-Oct-15 09:33N 32°05' W 081°03'5 5.1
2014-Oct-15 08:33N 32°08' W 081°08'0 0.1
2014-Oct-15 04:26N 32°08' W 081°08'0 0.0
2014-Oct-15 03:33N 32°08' W 081°08'0 0.0
2014-Oct-15 00:32N 32°08' W 081°08'0 0.0
2014-Oct-14 18:29N 32°08' W 081°08'  

Dump ship's entire track history